Time;durP1;ratioP1;P1;durP2;ratioP2;P2;SDS_P1;SDS_P2;PMS_P1;PMS_P2;Temp;Humidity;BMP_temperature;BMP_pressure;BME280_temperature;BME280_humidity;BME280_pressure;Samples;Min_cycle;Max_cycle;Signal;HPM_P1;HPM_P2
2023/09/10 00:01:24;;;;;;;8.05;7.22;;;;;;;;;;5011974;28;20545;-75
2023/09/10 00:03:50;;;;;;;7.07;6.38;;;;;;;;;;5012455;28;20049;-75
2023/09/10 00:06:16;;;;;;;9.57;7.53;;;;;;;;;;5012346;28;20073;-75
2023/09/10 00:08:42;;;;;;;9.98;8.90;;;;;;;;;;5012315;28;20589;-75
2023/09/10 00:11:08;;;;;;;7.38;6.47;;;;;;;;;;5012591;28;20045;-75
2023/09/10 00:13:34;;;;;;;9.30;8.50;;;;;;;;;;5011975;28;20077;-75
2023/09/10 00:16:00;;;;;;;15.10;13.43;;;;;;;;;;5012273;28;20121;-75
2023/09/10 00:18:26;;;;;;;12.95;11.65;;;;;;;;;;5011742;28;20112;-75
2023/09/10 00:20:52;;;;;;;11.40;10.30;;;;;;;;;;5012586;28;20037;-75
2023/09/10 00:23:19;;;;;;;11.98;10.77;;;;;;;;;;5012333;28;20076;-75
2023/09/10 00:25:45;;;;;;;10.30;9.30;;;;;;;;;;5012205;28;20373;-75
2023/09/10 00:28:11;;;;;;;9.70;8.70;;;;;;;;;;5012282;28;20109;-75
2023/09/10 00:30:37;;;;;;;9.85;8.85;;;;;;;;;;5012665;28;20038;-75
2023/09/10 00:33:03;;;;;;;8.48;7.65;;;;;;;;;;5012576;28;20077;-75
2023/09/10 00:35:29;;;;;;;10.57;9.63;;;;;;;;;;5011702;28;20053;-75
2023/09/10 00:37:55;;;;;;;9.43;8.52;;;;;;;;;;5012369;28;20034;-75
2023/09/10 00:40:21;;;;;;;9.93;8.88;;;;;;;;;;5011766;28;20046;-75
2023/09/10 00:42:47;;;;;;;8.90;8.10;;;;;;;;;;5012134;28;20092;-75
2023/09/10 00:45:13;;;;;;;8.60;7.80;;;;;;;;;;5011811;28;20084;-75
2023/09/10 00:47:43;;;;;;;9.57;8.57;;;;;;;;;;5012179;28;20030;-75
2023/09/10 00:50:10;;;;;;;9.13;8.23;;;;;;;;;;5011471;28;20096;-75
2023/09/10 00:52:38;;;;;;;9.90;8.75;;;;;;;;;;5004134;28;20038;-75
2023/09/10 00:55:05;;;;;;;12.02;9.75;;;;;;;;;;5011689;28;20049;-75
2023/09/10 00:57:31;;;;;;;11.48;10.02;;;;;;;;;;5010976;28;20084;-75
2023/09/10 00:59:57;;;;;;;11.25;10.15;;;;;;;;;;5011916;28;20118;-75
2023/09/10 01:02:23;;;;;;;11.18;9.93;;;;;;;;;;5010620;28;20480;-75
2023/09/10 01:04:49;;;;;;;10.80;9.68;;;;;;;;;;5011694;28;20041;-75
2023/09/10 01:07:15;;;;;;;11.90;10.70;;;;;;;;;;5011417;28;20038;-75
2023/09/10 01:09:41;;;;;;;10.77;9.68;;;;;;;;;;5011572;28;20038;-75
2023/09/10 01:12:13;;;;;;;10.38;9.38;;;;;;;;;;5012249;28;20034;-75
2023/09/10 01:14:48;;;;;;;12.65;11.32;;;;;;;;;;5012211;28;20038;-75
2023/09/10 01:17:16;;;;;;;13.73;12.27;;;;;;;;;;5010065;28;20690;-75
2023/09/10 01:19:51;;;;;;;9.05;7.53;;;;;;;;;;5011667;28;20095;-75
2023/09/10 01:22:20;;;;;;;9.57;8.32;;;;;;;;;;5011558;28;20042;-75
2023/09/10 01:24:48;;;;;;;13.00;11.05;;;;;;;;;;5011457;28;20037;-75
2023/09/10 01:27:15;;;;;;;11.50;10.30;;;;;;;;;;5011616;28;20120;-75
2023/09/10 01:29:41;;;;;;;14.00;11.68;;;;;;;;;;5011613;28;20116;-75
2023/09/10 01:32:11;;;;;;;19.45;16.00;;;;;;;;;;5011851;28;20130;-75
2023/09/10 01:34:44;;;;;;;14.77;13.27;;;;;;;;;;5011298;28;20065;-75
2023/09/10 01:37:31;;;;;;;14.13;12.63;;;;;;;;;;5011637;28;20104;-75
2023/09/10 01:39:58;;;;;;;11.05;9.95;;;;;;;;;;5014527;28;20060;-75
2023/09/10 01:42:25;;;;;;;9.10;8.30;;;;;;;;;;5014782;28;20038;-75
2023/09/10 01:44:52;;;;;;;9.07;8.27;;;;;;;;;;5013525;28;20542;-75
2023/09/10 01:47:18;;;;;;;9.52;8.65;;;;;;;;;;5014816;28;20617;-75
2023/09/10 01:49:44;;;;;;;8.43;7.70;;;;;;;;;;5015206;28;20044;-75
2023/09/10 01:52:10;;;;;;;7.93;7.13;;;;;;;;;;5014796;28;20046;-75
2023/09/10 01:54:36;;;;;;;9.38;8.50;;;;;;;;;;5014650;28;20041;-75
2023/09/10 01:57:02;;;;;;;12.07;10.32;;;;;;;;;;5014791;28;20476;-75
2023/09/10 01:59:28;;;;;;;13.23;11.65;;;;;;;;;;5014126;28;20129;-75
2023/09/10 02:01:54;;;;;;;13.73;12.32;;;;;;;;;;5014747;28;20458;-75
2023/09/10 02:04:20;;;;;;;10.10;8.98;;;;;;;;;;5014708;28;20034;-75
2023/09/10 02:06:46;;;;;;;12.93;11.18;;;;;;;;;;5014244;28;20034;-75
2023/09/10 02:09:12;;;;;;;10.65;9.55;;;;;;;;;;5014614;28;20472;-75
2023/09/10 02:11:38;;;;;;;11.00;9.90;;;;;;;;;;5014777;28;20046;-75
2023/09/10 02:14:04;;;;;;;11.15;10.05;;;;;;;;;;5014654;28;20411;-75
2023/09/10 02:16:30;;;;;;;11.13;10.02;;;;;;;;;;5013412;28;20045;-75
2023/09/10 02:18:56;;;;;;;13.02;11.82;;;;;;;;;;5013150;28;20030;-75
2023/09/10 02:21:22;;;;;;;13.35;12.13;;;;;;;;;;5014334;28;20037;-75
2023/09/10 02:23:48;;;;;;;12.68;11.57;;;;;;;;;;5012681;28;20034;-75
2023/09/10 02:26:15;;;;;;;10.80;9.73;;;;;;;;;;5013824;28;20113;-75
2023/09/10 02:28:41;;;;;;;10.85;9.75;;;;;;;;;;5014452;28;20117;-75
2023/09/10 02:31:08;;;;;;;10.77;9.77;;;;;;;;;;5014273;28;20491;-75
2023/09/10 02:33:34;;;;;;;10.00;9.05;;;;;;;;;;5013787;28;20038;-75
2023/09/10 02:36:00;;;;;;;10.00;9.10;;;;;;;;;;5013715;28;20478;-75
2023/09/10 02:38:30;;;;;;;11.15;10.05;;;;;;;;;;5014221;28;20096;-75
2023/09/10 02:40:56;;;;;;;13.25;11.75;;;;;;;;;;5014123;28;20038;-75
2023/09/10 02:43:23;;;;;;;14.20;12.73;;;;;;;;;;5005328;28;20053;-75
2023/09/10 02:45:49;;;;;;;14.48;12.98;;;;;;;;;;5013654;28;20038;-75
2023/09/10 02:48:15;;;;;;;15.63;13.55;;;;;;;;;;5013879;28;20037;-75
2023/09/10 02:50:41;;;;;;;14.00;12.70;;;;;;;;;;5012607;28;20048;-75
2023/09/10 02:53:07;;;;;;;13.45;12.10;;;;;;;;;;5013937;28;20476;-75
2023/09/10 02:55:33;;;;;;;14.43;12.93;;;;;;;;;;5012189;28;20041;-75
2023/09/10 02:57:58;;;;;;;12.20;10.85;;;;;;;;;;5013396;28;20439;-75
2023/09/10 03:00:25;;;;;;;11.18;10.07;;;;;;;;;;5013333;28;20044;-75
2023/09/10 03:02:55;;;;;;;10.93;9.93;;;;;;;;;;5012362;28;20037;-75
2023/09/10 03:05:21;;;;;;;11.20;10.10;;;;;;;;;;5012455;28;20038;-75
2023/09/10 03:07:50;;;;;;;12.05;10.95;;;;;;;;;;5012431;28;20120;-75
2023/09/10 03:10:16;;;;;;;10.52;9.63;;;;;;;;;;5013476;28;20038;-75
2023/09/10 03:12:42;;;;;;;10.52;9.60;;;;;;;;;;5011531;28;20507;-75
2023/09/10 03:15:09;;;;;;;13.02;11.38;;;;;;;;;;5011773;28;20045;-75
2023/09/10 03:17:35;;;;;;;12.57;10.60;;;;;;;;;;5013588;28;20034;-74
2023/09/10 03:20:01;;;;;;;12.73;11.43;;;;;;;;;;5013585;28;20049;-74
2023/09/10 03:22:26;;;;;;;9.07;8.27;;;;;;;;;;5011332;28;20038;-74
2023/09/10 03:24:52;;;;;;;10.93;9.70;;;;;;;;;;5006531;28;20034;-74
2023/09/10 03:27:18;;;;;;;12.10;10.90;;;;;;;;;;5011904;28;20049;-74
2023/09/10 03:29:45;;;;;;;13.40;12.00;;;;;;;;;;5012567;28;20188;-74
2023/09/10 03:32:11;;;;;;;16.65;13.30;;;;;;;;;;5013322;28;20510;-74
2023/09/10 03:34:38;;;;;;;13.27;11.82;;;;;;;;;;5013240;28;20037;-74
2023/09/10 03:37:05;;;;;;;12.25;10.95;;;;;;;;;;5012611;28;20044;-74
2023/09/10 03:39:31;;;;;;;12.07;10.85;;;;;;;;;;5012683;28;20041;-74
2023/09/10 03:41:57;;;;;;;10.95;9.93;;;;;;;;;;5012810;28;20100;-74
2023/09/10 03:44:23;;;;;;;16.85;15.05;;;;;;;;;;5013101;28;20117;-74
2023/09/10 03:46:50;;;;;;;18.00;15.18;;;;;;;;;;5012436;28;20032;-74
2023/09/10 03:49:16;;;;;;;21.55;18.60;;;;;;;;;;5013006;28;20034;-74
2023/09/10 03:51:42;;;;;;;19.80;17.30;;;;;;;;;;5012701;28;20096;-74
2023/09/10 03:54:11;;;;;;;17.17;15.27;;;;;;;;;;5012880;28;20550;-74
2023/09/10 03:56:37;;;;;;;15.52;14.02;;;;;;;;;;5011727;28;20085;-74
2023/09/10 03:59:03;;;;;;;14.63;13.23;;;;;;;;;;5013080;28;20068;-74
2023/09/10 04:01:29;;;;;;;14.10;12.75;;;;;;;;;;5007173;28;20084;-74
2023/09/10 04:03:56;;;;;;;14.90;13.40;;;;;;;;;;5004627;28;20037;-74
2023/09/10 04:06:22;;;;;;;15.75;14.20;;;;;;;;;;5010495;28;20188;-74
2023/09/10 04:08:47;;;;;;;16.70;14.73;;;;;;;;;;5010696;28;20487;-74
2023/09/10 04:11:13;;;;;;;14.70;13.30;;;;;;;;;;5012010;28;20048;-74
2023/09/10 04:13:39;;;;;;;14.75;13.35;;;;;;;;;;5010986;28;20049;-74
2023/09/10 04:16:05;;;;;;;13.63;12.43;;;;;;;;;;5010798;28;20042;-74
2023/09/10 04:18:34;;;;;;;12.27;11.18;;;;;;;;;;5012636;28;20487;-74
2023/09/10 04:21:00;;;;;;;11.43;10.43;;;;;;;;;;5012565;28;20071;-74
2023/09/10 04:23:26;;;;;;;13.05;11.82;;;;;;;;;;5010732;28;20129;-74
2023/09/10 04:25:52;;;;;;;13.05;11.85;;;;;;;;;;5011756;28;20483;-74
2023/09/10 04:28:18;;;;;;;13.35;12.05;;;;;;;;;;5012205;28;20038;-74
2023/09/10 04:30:44;;;;;;;13.38;12.07;;;;;;;;;;5012242;28;20369;-74
2023/09/10 04:33:11;;;;;;;11.02;10.02;;;;;;;;;;5012423;28;20121;-74
2023/09/10 04:35:37;;;;;;;12.48;11.18;;;;;;;;;;5011915;28;20108;-74
2023/09/10 04:38:03;;;;;;;11.75;10.55;;;;;;;;;;5011913;28;20037;-74
2023/09/10 04:40:31;;;;;;;10.63;9.63;;;;;;;;;;5012455;28;20042;-74
2023/09/10 04:42:57;;;;;;;12.45;11.25;;;;;;;;;;5012000;28;20489;-74
2023/09/10 04:45:23;;;;;;;15.82;14.13;;;;;;;;;;5011004;28;20049;-74
2023/09/10 04:47:49;;;;;;;15.25;13.63;;;;;;;;;;5011982;28;20037;-73
2023/09/10 04:50:15;;;;;;;16.10;14.40;;;;;;;;;;5010949;28;20045;-73
2023/09/10 04:52:41;;;;;;;14.90;13.15;;;;;;;;;;5012144;28;20480;-73
2023/09/10 04:55:07;;;;;;;19.20;16.23;;;;;;;;;;5011820;28;20040;-73
2023/09/10 04:57:33;;;;;;;19.50;16.45;;;;;;;;;;5011765;28;20042;-73
2023/09/10 04:59:59;;;;;;;21.88;17.52;;;;;;;;;;5012288;28;20038;-73
2023/09/10 05:02:25;;;;;;;18.92;16.20;;;;;;;;;;5011353;28;20045;-74
2023/09/10 05:04:51;;;;;;;17.83;14.45;;;;;;;;;;5011955;28;20256;-74
2023/09/10 05:07:17;;;;;;;15.55;13.93;;;;;;;;;;5011765;28;20041;-74
2023/09/10 05:09:43;;;;;;;16.27;14.57;;;;;;;;;;5012257;28;20034;-74
2023/09/10 05:12:09;;;;;;;17.13;14.48;;;;;;;;;;5011429;28;20117;-74
2023/09/10 05:14:35;;;;;;;16.73;14.23;;;;;;;;;;5014400;28;20042;-74
2023/09/10 05:17:01;;;;;;;17.67;14.85;;;;;;;;;;5015499;28;20500;-74
2023/09/10 05:19:27;;;;;;;17.70;14.23;;;;;;;;;;5014976;28;20045;-74
2023/09/10 05:21:53;;;;;;;15.40;13.73;;;;;;;;;;5013851;28;20394;-74
2023/09/10 05:24:19;;;;;;;13.95;12.57;;;;;;;;;;5015953;28;20026;-74
2023/09/10 05:26:45;;;;;;;13.13;11.95;;;;;;;;;;5015060;28;20100;-74
2023/09/10 05:29:11;;;;;;;13.13;12.02;;;;;;;;;;5015753;28;20492;-74
2023/09/10 05:31:37;;;;;;;13.63;12.43;;;;;;;;;;5015042;28;20045;-74
2023/09/10 05:34:04;;;;;;;12.18;11.18;;;;;;;;;;5015388;28;20041;-74
2023/09/10 05:36:30;;;;;;;11.90;11.00;;;;;;;;;;5014282;28;20061;-74
2023/09/10 05:38:56;;;;;;;11.77;10.85;;;;;;;;;;5015449;28;20038;-74
2023/09/10 05:41:22;;;;;;;12.20;11.20;;;;;;;;;;5015355;28;20128;-74
2023/09/10 05:43:48;;;;;;;13.07;12.07;;;;;;;;;;5015468;28;20476;-74
2023/09/10 05:46:14;;;;;;;10.07;9.38;;;;;;;;;;5014538;28;20065;-74
2023/09/10 05:48:40;;;;;;;11.90;10.85;;;;;;;;;;5013272;28;20053;-74
2023/09/10 05:51:06;;;;;;;16.27;14.68;;;;;;;;;;5015084;28;20034;-74
2023/09/10 05:53:32;;;;;;;15.18;13.77;;;;;;;;;;5014312;28;20124;-74
2023/09/10 05:55:58;;;;;;;17.10;15.40;;;;;;;;;;5014881;28;20041;-74
2023/09/10 05:58:24;;;;;;;14.10;12.80;;;;;;;;;;5013209;28;20049;-74
2023/09/10 06:00:52;;;;;;;16.80;15.10;;;;;;;;;;5014602;28;20042;-74
2023/09/10 06:03:18;;;;;;;18.17;16.35;;;;;;;;;;5014580;28;20069;-74
2023/09/10 06:05:44;;;;;;;20.75;18.50;;;;;;;;;;5014286;28;20384;-74
2023/09/10 06:08:10;;;;;;;24.70;20.83;;;;;;;;;;5014303;28;20037;-74
2023/09/10 06:10:36;;;;;;;26.77;22.23;;;;;;;;;;5014714;28;20046;-74
2023/09/10 06:13:02;;;;;;;30.48;24.00;;;;;;;;;;5014602;28;20522;-74
2023/09/10 06:15:28;;;;;;;37.63;30.00;;;;;;;;;;5014455;28;20038;-74
2023/09/10 06:17:53;;;;;;;39.08;31.55;;;;;;;;;;5012832;28;20042;-74
2023/09/10 06:20:20;;;;;;;44.08;34.38;;;;;;;;;;5014621;28;20033;-74
2023/09/10 06:22:45;;;;;;;41.17;31.38;;;;;;;;;;5014093;28;20132;-74
2023/09/10 06:25:11;;;;;;;43.50;33.38;;;;;;;;;;5013978;28;20129;-74
2023/09/10 06:27:37;;;;;;;41.83;32.60;;;;;;;;;;5013999;28;20092;-74
2023/09/10 06:30:04;;;;;;;41.08;31.88;;;;;;;;;;5014569;28;20033;-74
2023/09/10 06:32:30;;;;;;;46.88;33.78;;;;;;;;;;5013080;28;20077;-74
2023/09/10 06:34:56;;;;;;;47.33;35.83;;;;;;;;;;5013889;28;20073;-74
2023/09/10 06:37:22;;;;;;;47.72;35.15;;;;;;;;;;5012388;28;20059;-74
2023/09/10 06:39:48;;;;;;;45.50;35.30;;;;;;;;;;5014482;28;20091;-73
2023/09/10 06:42:14;;;;;;;47.03;35.20;;;;;;;;;;5013507;28;20042;-73
2023/09/10 06:44:43;;;;;;;55.33;41.20;;;;;;;;;;5013996;28;20033;-73
2023/09/10 06:47:12;;;;;;;55.80;42.30;;;;;;;;;;5013610;28;20041;-73
2023/09/10 06:49:38;;;;;;;64.68;45.67;;;;;;;;;;5014069;28;20038;-73
2023/09/10 06:52:05;;;;;;;64.90;49.92;;;;;;;;;;5013758;28;20045;-73
2023/09/10 06:54:31;;;;;;;68.53;49.42;;;;;;;;;;5013608;28;20495;-73
2023/09/10 06:57:01;;;;;;;69.93;51.17;;;;;;;;;;5013553;28;20140;-73
2023/09/10 06:59:27;;;;;;;74.55;52.88;;;;;;;;;;5013405;28;20067;-73
2023/09/10 07:01:53;;;;;;;71.30;51.80;;;;;;;;;;5013648;28;20053;-73
2023/09/10 07:04:20;;;;;;;66.72;49.97;;;;;;;;;;5006182;28;20056;-73
2023/09/10 07:06:47;;;;;;;68.18;50.08;;;;;;;;;;5011827;28;20438;-73
2023/09/10 07:09:13;;;;;;;69.80;50.40;;;;;;;;;;5012199;28;20065;-73
2023/09/10 07:11:39;;;;;;;65.43;47.85;;;;;;;;;;5012120;28;20073;-73
2023/09/10 07:14:05;;;;;;;65.35;49.03;;;;;;;;;;5013307;28;20589;-73
2023/09/10 07:16:34;;;;;;;63.15;48.22;;;;;;;;;;5011934;28;20049;-73
2023/09/10 07:19:00;;;;;;;66.15;48.22;;;;;;;;;;5013113;28;20530;-73
2023/09/10 07:21:26;;;;;;;64.15;47.92;;;;;;;;;;5011862;28;20041;-73
2023/09/10 07:23:52;;;;;;;60.40;46.15;;;;;;;;;;5013532;28;20072;-73
2023/09/10 07:26:18;;;;;;;62.65;47.13;;;;;;;;;;5012649;28;20034;-73
2023/09/10 07:28:44;;;;;;;61.05;46.05;;;;;;;;;;5013079;28;20121;-73
2023/09/10 07:31:10;;;;;;;63.30;47.80;;;;;;;;;;5013478;28;20391;-73
2023/09/10 07:33:36;;;;;;;57.72;45.58;;;;;;;;;;5012345;28;20046;-73
2023/09/10 07:36:02;;;;;;;60.80;45.03;;;;;;;;;;5012450;28;20068;-73
2023/09/10 07:38:28;;;;;;;60.78;45.60;;;;;;;;;;5012796;28;20049;-73
2023/09/10 07:40:54;;;;;;;55.70;43.45;;;;;;;;;;5012989;28;20049;-73
2023/09/10 07:43:22;;;;;;;53.15;41.92;;;;;;;;;;5012399;28;20038;-73
2023/09/10 07:45:49;;;;;;;53.50;41.95;;;;;;;;;;5012941;28;20116;-73
2023/09/10 07:48:15;;;;;;;54.22;42.28;;;;;;;;;;5013183;28;20081;-73
2023/09/10 07:50:41;;;;;;;49.25;39.10;;;;;;;;;;5012306;28;20070;-73
2023/09/10 07:53:07;;;;;;;51.65;40.22;;;;;;;;;;5012707;28;20127;-73
2023/09/10 07:55:36;;;;;;;48.85;39.47;;;;;;;;;;5012549;28;20121;-73
2023/09/10 07:58:03;;;;;;;49.72;39.90;;;;;;;;;;5012749;28;20590;-73
2023/09/10 08:00:34;;;;;;;47.85;39.05;;;;;;;;;;5012506;28;20049;-73
2023/09/10 08:03:03;;;;;;;46.05;37.17;;;;;;;;;;5012898;28;20034;-73
2023/09/10 08:05:29;;;;;;;43.75;35.33;;;;;;;;;;5012076;28;20514;-73
2023/09/10 08:07:55;;;;;;;43.20;32.88;;;;;;;;;;5011886;28;20488;-73
2023/09/10 08:10:21;;;;;;;44.10;35.83;;;;;;;;;;5012403;28;20048;-73
2023/09/10 08:12:47;;;;;;;43.35;34.47;;;;;;;;;;5012597;28;20077;-73
2023/09/10 08:15:13;;;;;;;40.08;32.83;;;;;;;;;;5012270;28;20471;-73
2023/09/10 08:17:39;;;;;;;41.28;34.20;;;;;;;;;;5012318;28;20045;-73
2023/09/10 08:20:07;;;;;;;42.90;35.10;;;;;;;;;;5012247;28;20431;-73
2023/09/10 08:22:33;;;;;;;41.20;34.53;;;;;;;;;;5012504;28;20065;-73
2023/09/10 08:24:59;;;;;;;48.28;35.03;;;;;;;;;;5011420;28;20036;-74
2023/09/10 08:27:25;;;;;;;45.25;34.08;;;;;;;;;;5012247;28;20068;-74
2023/09/10 08:29:51;;;;;;;41.65;34.45;;;;;;;;;;5012322;28;20472;-74
2023/09/10 08:32:17;;;;;;;43.75;33.83;;;;;;;;;;5012162;28;20084;-74
2023/09/10 08:34:43;;;;;;;38.22;32.33;;;;;;;;;;5012005;28;20432;-74
2023/09/10 08:37:11;;;;;;;36.15;30.17;;;;;;;;;;5012108;28;20050;-74
2023/09/10 08:39:37;;;;;;;35.67;29.85;;;;;;;;;;5011419;28;20116;-74
2023/09/10 08:42:17;;;;;;;34.28;28.73;;;;;;;;;;5012492;28;20180;-74
2023/09/10 08:44:45;;;;;;;33.65;28.10;;;;;;;;;;5012392;28;20037;-74
2023/09/10 08:47:14;;;;;;;35.28;27.60;;;;;;;;;;5012012;28;20044;-74
2023/09/10 08:49:43;;;;;;;32.55;27.63;;;;;;;;;;5014145;28;20042;-74
2023/09/10 08:52:09;;;;;;;33.30;26.52;;;;;;;;;;5016169;28;20041;-74
2023/09/10 08:54:35;;;;;;;33.30;27.02;;;;;;;;;;5016343;28;20129;-74
2023/09/10 08:57:02;;;;;;;32.40;24.83;;;;;;;;;;5015436;28;20507;-74
2023/09/10 08:59:29;;;;;;;32.53;27.23;;;;;;;;;;5015874;28;20120;-74
2023/09/10 09:01:56;;;;;;;32.90;25.05;;;;;;;;;;5016107;28;20049;-74
2023/09/10 09:04:23;;;;;;;32.13;25.00;;;;;;;;;;5016066;28;20126;-74
2023/09/10 09:06:56;;;;;;;30.80;25.20;;;;;;;;;;5015085;28;20073;-74
2023/09/10 09:09:25;;;;;;;30.95;25.15;;;;;;;;;;5015899;28;20121;-74
2023/09/10 09:11:52;;;;;;;30.15;25.73;;;;;;;;;;5016081;28;20042;-74
2023/09/10 09:14:18;;;;;;;34.20;25.77;;;;;;;;;;5015244;28;20038;-74
2023/09/10 09:16:47;;;;;;;29.00;24.70;;;;;;;;;;5015484;28;20041;-74
2023/09/10 09:19:14;;;;;;;27.80;24.00;;;;;;;;;;5015600;28;20033;-74
2023/09/10 09:21:41;;;;;;;30.70;24.90;;;;;;;;;;5015573;28;20535;-74
2023/09/10 09:24:08;;;;;;;29.42;24.63;;;;;;;;;;5015285;28;20047;-74
2023/09/10 09:26:34;;;;;;;26.25;22.98;;;;;;;;;;5015211;28;20428;-74
2023/09/10 09:29:00;;;;;;;24.85;21.50;;;;;;;;;;5015606;28;20403;-74
2023/09/10 09:31:27;;;;;;;25.45;22.13;;;;;;;;;;5015136;28;20045;-74
2023/09/10 09:33:53;;;;;;;24.35;21.20;;;;;;;;;;5015293;28;20786;-74
2023/09/10 09:36:19;;;;;;;25.17;21.73;;;;;;;;;;5014913;28;20037;-74
2023/09/10 09:38:46;;;;;;;25.27;21.35;;;;;;;;;;5013808;28;20081;-74
2023/09/10 09:41:15;;;;;;;21.73;18.45;;;;;;;;;;5015134;28;20045;-74
2023/09/10 09:43:41;;;;;;;23.38;20.08;;;;;;;;;;5015455;28;20049;-74
2023/09/10 09:46:07;;;;;;;24.30;20.35;;;;;;;;;;5015141;28;20034;-74
2023/09/10 09:48:34;;;;;;;24.60;20.38;;;;;;;;;;5014227;28;20124;-74
2023/09/10 09:51:01;;;;;;;24.85;20.30;;;;;;;;;;5014890;28;20504;-74
2023/09/10 09:53:28;;;;;;;26.38;21.20;;;;;;;;;;5015424;28;20050;-74
2023/09/10 09:56:02;;;;;;;25.10;21.05;;;;;;;;;;5014374;28;20042;-74
2023/09/10 09:58:31;;;;;;;24.48;20.40;;;;;;;;;;5015128;28;20108;-74
2023/09/10 10:00:58;;;;;;;24.13;18.38;;;;;;;;;;5013968;28;20045;-74
2023/09/10 10:03:24;;;;;;;23.50;19.88;;;;;;;;;;5014707;28;20042;-74
2023/09/10 10:05:54;;;;;;;18.80;16.77;;;;;;;;;;5013534;28;20042;-74
2023/09/10 10:08:25;;;;;;;28.40;19.63;;;;;;;;;;5014927;28;20068;-74
2023/09/10 10:10:51;;;;;;;21.23;17.70;;;;;;;;;;5014972;28;20040;-74
2023/09/10 10:13:18;;;;;;;23.40;16.98;;;;;;;;;;5014358;28;20403;-74
2023/09/10 10:15:48;;;;;;;17.20;15.40;;;;;;;;;;5012918;28;20129;-74
2023/09/10 10:18:17;;;;;;;19.97;15.97;;;;;;;;;;5014729;28;20125;-74
2023/09/10 10:20:47;;;;;;;20.90;17.13;;;;;;;;;;5013890;28;20289;-74
2023/09/10 10:23:14;;;;;;;35.38;16.85;;;;;;;;;;5014717;28;20038;-74
2023/09/10 10:25:43;;;;;;;21.35;15.50;;;;;;;;;;5013807;28;20034;-74
2023/09/10 10:28:10;;;;;;;19.13;15.68;;;;;;;;;;5014402;28;20038;-74
2023/09/10 10:30:44;;;;;;;20.98;17.13;;;;;;;;;;5013587;28;20037;-74
2023/09/10 10:33:10;;;;;;;19.35;15.95;;;;;;;;;;5014805;28;20038;-74
2023/09/10 10:35:43;;;;;;;24.42;17.60;;;;;;;;;;5013852;28;20492;-74
2023/09/10 10:38:09;;;;;;;19.00;14.98;;;;;;;;;;5013616;28;20508;-74
2023/09/10 10:40:40;;;;;;;19.85;15.65;;;;;;;;;;5013668;28;20529;-74
2023/09/10 10:43:06;;;;;;;;;;;;;;;;;;5014898;28;20079;-74
2023/09/10 10:45:33;;;;;;;17.95;14.43;;;;;;;;;;5014007;28;19996;-74
2023/09/10 10:48:00;;;;;;;20.65;15.07;;;;;;;;;;5013743;28;20087;-74
2023/09/10 10:50:27;;;;;;;20.48;14.95;;;;;;;;;;5013607;28;20046;-74
2023/09/10 10:52:59;;;;;;;20.55;15.88;;;;;;;;;;5013918;28;20041;-74
2023/09/10 10:55:26;;;;;;;19.92;17.40;;;;;;;;;;5012951;28;20042;-74
2023/09/10 10:57:55;;;;;;;16.90;15.10;;;;;;;;;;5013966;28;20108;-74
2023/09/10 11:00:21;;;;;;;17.02;15.05;;;;;;;;;;5014156;28;20085;-74
2023/09/10 11:03:06;;;;;;;19.58;16.85;;;;;;;;;;5013488;28;20037;-74
2023/09/10 11:05:51;;;;;;;18.58;14.75;;;;;;;;;;5012967;28;20045;-74
2023/09/10 11:08:26;;;;;;;17.65;14.80;;;;;;;;;;5013934;28;20034;-74
2023/09/10 11:10:52;;;;;;;21.20;16.27;;;;;;;;;;5012586;28;20046;-74
2023/09/10 11:13:18;;;;;;;16.00;14.05;;;;;;;;;;5013612;28;20113;-74
2023/09/10 11:16:03;;;;;;;19.92;15.48;;;;;;;;;;5012754;28;20042;-74
2023/09/10 11:18:35;;;;;;;19.05;13.70;;;;;;;;;;5013398;28;20392;-74
2023/09/10 11:21:05;;;;;;;17.23;14.90;;;;;;;;;;5013287;28;20046;-74
2023/09/10 11:23:32;;;;;;;20.13;15.20;;;;;;;;;;5013760;28;20404;-74
2023/09/10 11:26:13;;;;;;;16.25;14.55;;;;;;;;;;5013154;28;20030;-74
2023/09/10 11:28:40;;;;;;;14.52;12.93;;;;;;;;;;5012791;28;20038;-74
2023/09/10 11:31:26;;;;;;;15.55;11.95;;;;;;;;;;5013242;28;20038;-74
2023/09/10 11:33:57;;;;;;;16.92;12.98;;;;;;;;;;5013132;28;20046;-74
2023/09/10 11:36:24;;;;;;;16.98;14.02;;;;;;;;;;5012349;28;20045;-74
2023/09/10 11:38:50;;;;;;;18.17;13.48;;;;;;;;;;5012973;28;20492;-74
2023/09/10 11:41:16;;;;;;;16.73;13.43;;;;;;;;;;5013036;28;20049;-74
2023/09/10 11:43:42;;;;;;;15.63;13.15;;;;;;;;;;5011150;28;20053;-74
2023/09/10 11:46:08;;;;;;;18.05;13.20;;;;;;;;;;5012892;28;20484;-74
2023/09/10 11:48:34;;;;;;;16.75;13.15;;;;;;;;;;5013184;28;20084;-74
2023/09/10 11:51:00;;;;;;;18.63;12.52;;;;;;;;;;5013570;28;20492;-74
2023/09/10 11:53:26;;;;;;;18.98;13.77;;;;;;;;;;5012712;28;20042;-74
2023/09/10 11:55:52;;;;;;;20.20;11.80;;;;;;;;;;5013022;28;20041;-74
2023/09/10 11:58:18;;;;;;;18.77;11.20;;;;;;;;;;5013052;28;20038;-74
2023/09/10 12:00:45;;;;;;;18.65;12.07;;;;;;;;;;5011332;28;20052;-74
2023/09/10 12:03:11;;;;;;;16.90;11.57;;;;;;;;;;5013106;28;20056;-74
2023/09/10 12:05:37;;;;;;;16.20;10.52;;;;;;;;;;5012575;28;20073;-74
2023/09/10 12:08:03;;;;;;;14.48;11.07;;;;;;;;;;5012625;28;20073;-74
2023/09/10 12:10:30;;;;;;;21.20;12.35;;;;;;;;;;5012600;28;20535;-74
2023/09/10 12:13:03;;;;;;;15.98;10.82;;;;;;;;;;5012521;28;20060;-74
2023/09/10 12:15:29;;;;;;;18.83;10.68;;;;;;;;;;5012937;28;20050;-74
2023/09/10 12:17:55;;;;;;;16.42;11.15;;;;;;;;;;5012160;28;20506;-73
2023/09/10 12:20:21;;;;;;;19.70;11.98;;;;;;;;;;5013504;28;20045;-73
2023/09/10 12:22:47;;;;;;;21.17;11.20;;;;;;;;;;5011306;28;20041;-73
2023/09/10 12:25:13;;;;;;;18.02;10.43;;;;;;;;;;5013205;28;20042;-73
2023/09/10 12:27:39;;;;;;;18.10;10.38;;;;;;;;;;5012500;28;20045;-73
2023/09/10 12:30:06;;;;;;;18.77;9.82;;;;;;;;;;5012632;28;20100;-73
2023/09/10 12:32:32;;;;;;;19.00;10.52;;;;;;;;;;5011985;28;20635;-73
2023/09/10 12:34:58;;;;;;;19.33;10.32;;;;;;;;;;5011645;28;20078;-73
2023/09/10 12:37:25;;;;;;;19.52;10.73;;;;;;;;;;5012101;28;20046;-73
2023/09/10 12:39:53;;;;;;;17.88;10.18;;;;;;;;;;5012443;28;20053;-73
2023/09/10 12:42:19;;;;;;;14.88;9.55;;;;;;;;;;5011786;28;20492;-73
2023/09/10 12:44:45;;;;;;;17.10;10.25;;;;;;;;;;5012498;28;20036;-73
2023/09/10 12:47:11;;;;;;;20.23;9.90;;;;;;;;;;5011732;28;20033;-73
2023/09/10 12:49:38;;;;;;;17.65;9.57;;;;;;;;;;5011702;28;20049;-73
2023/09/10 12:52:04;;;;;;;15.48;10.10;;;;;;;;;;5011444;28;20049;-73
2023/09/10 12:54:31;;;;;;;21.20;10.85;;;;;;;;;;5012454;28;20045;-73
2023/09/10 12:57:02;;;;;;;14.75;9.50;;;;;;;;;;5011957;28;20107;-73
2023/09/10 12:59:28;;;;;;;20.25;10.40;;;;;;;;;;5012271;28;20046;-73
2023/09/10 13:01:54;;;;;;;15.32;9.68;;;;;;;;;;5011258;28;20088;-73
2023/09/10 13:04:20;;;;;;;22.58;10.35;;;;;;;;;;5012243;28;20440;-73
2023/09/10 13:06:46;;;;;;;18.00;10.77;;;;;;;;;;5012006;28;20087;-73
2023/09/10 13:09:12;;;;;;;22.52;9.95;;;;;;;;;;5011515;28;20038;-73
2023/09/10 13:11:39;;;;;;;23.52;9.88;;;;;;;;;;5012027;28;20125;-73
2023/09/10 13:14:05;;;;;;;16.80;9.07;;;;;;;;;;5012161;28;20116;-73
2023/09/10 13:16:32;;;;;;;17.17;8.45;;;;;;;;;;5011709;28;20121;-73
2023/09/10 13:18:58;;;;;;;25.77;9.43;;;;;;;;;;5011365;28;20565;-73
2023/09/10 13:21:24;;;;;;;25.90;8.57;;;;;;;;;;5012071;28;20049;-73
2023/09/10 13:23:50;;;;;;;23.58;8.88;;;;;;;;;;5012011;28;20042;-73
2023/09/10 13:26:15;;;;;;;24.80;8.82;;;;;;;;;;5011158;28;20472;-73
2023/09/10 13:28:41;;;;;;;22.50;9.35;;;;;;;;;;5011601;28;20034;-73
2023/09/10 13:31:07;;;;;;;21.17;8.43;;;;;;;;;;5011967;28;20100;-73
2023/09/10 13:33:33;;;;;;;21.17;8.85;;;;;;;;;;5011485;28;20088;-74
2023/09/10 13:35:59;;;;;;;18.67;8.30;;;;;;;;;;5014794;28;20044;-74
2023/09/10 13:38:25;;;;;;;21.05;7.95;;;;;;;;;;5015262;28;20088;-74
2023/09/10 13:40:56;;;;;;;26.75;9.52;;;;;;;;;;5014922;28;20053;-74
2023/09/10 13:43:23;;;;;;;21.48;8.65;;;;;;;;;;5015063;28;20038;-74
2023/09/10 13:45:49;;;;;;;31.08;8.80;;;;;;;;;;5014813;28;20403;-74
2023/09/10 13:48:15;;;;;;;31.73;8.85;;;;;;;;;;5015650;28;20030;-74
2023/09/10 13:50:41;;;;;;;23.25;8.60;;;;;;;;;;5014605;28;20045;-74
2023/09/10 13:53:07;;;;;;;24.52;9.30;;;;;;;;;;5014762;28;20495;-74
2023/09/10 13:55:33;;;;;;;23.88;8.80;;;;;;;;;;5014893;28;20046;-74
2023/09/10 13:57:59;;;;;;;25.00;9.15;;;;;;;;;;5014218;28;20096;-74
2023/09/10 14:00:25;;;;;;;22.25;9.32;;;;;;;;;;5014815;28;20034;-74
2023/09/10 14:02:51;;;;;;;21.45;8.77;;;;;;;;;;5014835;28;20049;-74
2023/09/10 14:05:17;;;;;;;21.75;8.65;;;;;;;;;;5015087;28;20056;-74
2023/09/10 14:07:43;;;;;;;23.15;9.00;;;;;;;;;;5014133;28;20092;-74
2023/09/10 14:10:09;;;;;;;25.42;9.68;;;;;;;;;;5015068;28;20471;-74
2023/09/10 14:12:35;;;;;;;24.70;8.73;;;;;;;;;;5014814;28;20043;-74
2023/09/10 14:15:01;;;;;;;25.38;8.88;;;;;;;;;;5013900;28;20481;-74
2023/09/10 14:17:27;;;;;;;25.55;8.82;;;;;;;;;;5014655;28;20049;-74
2023/09/10 14:19:53;;;;;;;20.23;8.95;;;;;;;;;;5014590;28;20042;-74